Time;durP1;ratioP1;P1;durP2;ratioP2;P2;SDS_P1;SDS_P2;PMS_P1;PMS_P2;Temp;Humidity;BMP_temperature;BMP_pressure;BME280_temperature;BME280_humidity;BME280_pressure;Samples;Min_cycle;Max_cycle;Signal;HPM_P1;HPM_P2
2024/01/05 00:01:46;;;;;;;7.80;4.60;;;;;;;-1.27;99.34;99524.63;106037;1257;102096;-79
2024/01/05 00:04:32;;;;;;;7.40;4.80;;;;;;;-1.29;99.28;99525.46;105716;1260;99234;-78
2024/01/05 00:07:18;;;;;;;8.50;4.90;;;;;;;-1.33;99.37;99538.14;105567;1261;98747;-79
2024/01/05 00:10:04;;;;;;;8.60;5.10;;;;;;;-1.37;99.48;99543.38;105659;1260;98731;-78
2024/01/05 00:12:50;;;;;;;7.30;4.70;;;;;;;-1.39;99.78;99547.71;105658;1257;98051;-79
2024/01/05 00:15:36;;;;;;;8.10;5.00;;;;;;;-1.38;99.94;99552.19;105672;1257;101520;-78
2024/01/05 00:18:22;;;;;;;10.50;4.80;;;;;;;-1.37;100.00;99554.26;105635;1257;100644;-79
2024/01/05 00:21:08;;;;;;;10.80;5.50;;;;;;;-1.35;100.00;99559.80;105663;1260;98832;-78
2024/01/05 00:23:55;;;;;;;8.80;4.90;;;;;;;-1.31;100.00;99567.53;105562;1263;97926;-79
2024/01/05 00:26:41;;;;;;;8.60;6.10;;;;;;;-1.25;100.00;99575.75;105582;1262;98408;-79
2024/01/05 00:29:26;;;;;;;8.40;5.80;;;;;;;-1.20;100.00;99582.15;105671;1255;101534;-77
2024/01/05 00:32:12;;;;;;;7.50;5.40;;;;;;;-1.19;100.00;99582.95;105677;1260;99649;-78
2024/01/05 00:34:57;;;;;;;9.80;6.00;;;;;;;-1.21;100.00;99583.81;105742;1257;99046;-79
2024/01/05 00:37:43;;;;;;;10.70;5.80;;;;;;;-1.20;100.00;99587.05;106261;1257;97852;-79
2024/01/05 00:40:29;;;;;;;10.60;5.50;;;;;;;-1.17;100.00;99587.24;106367;1260;97997;-79
2024/01/05 00:43:14;;;;;;;8.40;5.50;;;;;;;-1.14;100.00;99591.38;106181;1255;102173;-79
2024/01/05 00:46:00;;;;;;;9.90;5.80;;;;;;;-1.11;100.00;99597.72;106015;1257;100894;-79
2024/01/05 00:48:45;;;;;;;8.20;5.30;;;;;;;-1.07;100.00;99600.89;105746;1257;98006;-79
2024/01/05 00:51:31;;;;;;;8.10;4.90;;;;;;;-1.03;100.00;99605.27;105674;1260;98724;-78
2024/01/05 00:54:16;;;;;;;6.90;4.40;;;;;;;-0.98;100.00;99607.58;106123;1260;97866;-79
2024/01/05 00:57:02;;;;;;;7.80;4.60;;;;;;;-0.95;100.00;99615.21;106234;1257;102629;-79
2024/01/05 00:59:48;;;;;;;9.10;5.00;;;;;;;-0.99;100.00;99618.37;105671;1260;99138;-79
2024/01/05 01:02:34;;;;;;;6.20;4.20;;;;;;;-0.98;100.00;99621.44;105946;1258;98047;-79
2024/01/05 01:05:19;;;;;;;7.70;4.70;;;;;;;-0.97;100.00;99624.31;105643;1255;97978;-78
2024/01/05 01:08:05;;;;;;;7.30;4.30;;;;;;;-0.97;100.00;99628.71;105876;1255;97867;-78
2024/01/05 01:10:50;;;;;;;7.10;4.10;;;;;;;-0.98;100.00;99632.95;105789;1261;101390;-78
2024/01/05 01:13:36;;;;;;;5.50;3.90;;;;;;;-0.99;100.00;99642.75;105771;1260;99706;-79
2024/01/05 01:16:22;;;;;;;9.20;4.50;;;;;;;-1.02;100.00;99648.39;105675;1258;98409;-79
2024/01/05 01:19:07;;;;;;;7.60;4.10;;;;;;;-1.03;100.00;99650.45;105951;1263;98017;-78
2024/01/05 01:21:52;;;;;;;6.70;4.70;;;;;;;-1.03;100.00;99648.84;105622;1260;98506;-78
2024/01/05 01:24:38;;;;;;;5.10;3.70;;;;;;;-1.01;100.00;99651.02;106289;1260;101361;-79
2024/01/05 01:27:23;;;;;;;8.40;3.80;;;;;;;-1.01;100.00;99651.33;106162;1255;99302;-79
2024/01/05 01:30:09;;;;;;;6.20;3.40;;;;;;;-1.01;100.00;99655.73;106164;1257;99068;-79
2024/01/05 01:32:55;;;;;;;7.60;3.60;;;;;;;-1.00;100.00;99654.91;106224;1258;97925;-80
2024/01/05 01:35:40;;;;;;;6.60;3.40;;;;;;;-0.97;100.00;99659.15;105794;1258;98502;-79
2024/01/05 01:38:26;;;;;;;4.50;3.30;;;;;;;-0.94;100.00;99663.14;105788;1260;101397;-79
2024/01/05 01:41:12;;;;;;;6.20;3.50;;;;;;;-0.90;100.00;99666.99;105689;1260;99125;-78
2024/01/05 01:43:58;;;;;;;7.10;3.60;;;;;;;-0.90;100.00;99665.02;105580;1260;97971;-78
2024/01/05 01:46:44;;;;;;;6.10;3.10;;;;;;;-0.90;100.00;99663.30;105815;1261;97959;-79
2024/01/05 01:49:30;;;;;;;6.40;3.80;;;;;;;-0.87;100.00;99667.60;106281;1255;97729;-79
2024/01/05 01:52:16;;;;;;;5.50;3.20;;;;;;;-0.85;99.73;99671.64;106334;1255;101487;-80
2024/01/05 01:55:02;;;;;;;6.10;2.90;;;;;;;-0.85;99.24;99672.14;106272;1256;100553;-80
2024/01/05 01:57:48;;;;;;;6.30;3.60;;;;;;;-0.86;98.62;99674.46;105746;1260;97941;-79
2024/01/05 02:00:34;;;;;;;5.30;3.50;;;;;;;-0.89;97.91;99680.22;105596;1257;98832;-79
2024/01/05 02:03:20;;;;;;;6.80;3.60;;;;;;;-0.93;97.73;99687.17;105811;1260;98205;-79
2024/01/05 02:06:06;;;;;;;5.70;3.50;;;;;;;-0.94;97.68;99687.85;105796;1261;101503;-79
2024/01/05 02:08:52;;;;;;;6.20;3.30;;;;;;;-0.97;97.25;99687.20;105765;1256;99223;-78
2024/01/05 02:11:39;;;;;;;5.50;3.20;;;;;;;-1.00;96.64;99686.63;105994;1260;97846;-79
2024/01/05 02:14:24;;;;;;;3.80;2.30;;;;;;;-1.01;96.16;99688.12;106256;1257;97967;-78
2024/01/05 02:17:32;;;;;;;4.00;2.80;;;;;;;-1.11;94.28;99693.92;106494;1255;99633;-79
2024/01/05 02:20:18;;;;;;;3.90;2.10;;;;;;;-1.24;93.44;99694.17;105713;1258;102440;-79
2024/01/05 02:23:11;;;;;;;3.10;2.20;;;;;;;-1.31;92.85;99701.53;105802;1255;99124;-79
2024/01/05 02:25:58;;;;;;;3.90;2.10;;;;;;;-1.38;92.79;99706.48;106391;1257;98989;-79
2024/01/05 02:28:44;;;;;;;3.00;2.10;;;;;;;-1.37;93.11;99713.43;106382;1255;97904;-79
2024/01/05 02:31:29;;;;;;;2.30;1.50;;;;;;;-1.37;92.68;99718.16;105974;1257;98585;-79
2024/01/05 02:34:15;;;;;;;3.10;2.10;;;;;;;-1.38;92.60;99723.48;106254;1257;102656;-79
2024/01/05 02:37:00;;;;;;;3.20;2.00;;;;;;;-1.37;92.30;99726.89;106228;1256;100490;-79
2024/01/05 02:39:45;;;;;;;2.50;1.60;;;;;;;-1.37;92.01;99728.28;106257;1255;98499;-79
2024/01/05 02:42:31;;;;;;;4.00;2.10;;;;;;;-1.36;91.82;99729.64;106315;1256;97963;-80
2024/01/05 02:45:20;;;;;;;2.10;1.40;;;;;;;-1.38;91.43;99735.39;106207;1260;98062;-79
2024/01/05 02:48:06;;;;;;;2.40;1.60;;;;;;;-1.41;91.10;99738.33;105764;1260;101436;-79
2024/01/05 02:50:52;;;;;;;4.10;1.70;;;;;;;-1.44;90.79;99737.62;105705;1256;99138;-78
2024/01/05 02:53:38;;;;;;;2.10;1.50;;;;;;;-1.44;90.88;99742.50;105744;1260;98983;-78
2024/01/05 02:56:24;;;;;;;3.20;1.60;;;;;;;-1.43;90.81;99743.84;105742;1260;97968;-79
2024/01/05 02:59:09;;;;;;;2.20;1.30;;;;;;;-1.40;91.10;99749.02;105862;1261;97881;-79
2024/01/05 03:01:55;;;;;;;2.60;1.40;;;;;;;-1.37;91.17;99757.14;105797;1260;101331;-78
2024/01/05 03:04:43;;;;;;;2.40;1.80;;;;;;;-1.36;91.16;99762.32;106011;1257;99170;-79
2024/01/05 03:07:29;;;;;;;5.70;2.10;;;;;;;-1.32;91.43;99765.70;106339;1260;98655;-79
2024/01/05 03:10:14;;;;;;;2.90;1.80;;;;;;;-1.31;91.10;99767.13;106229;1261;96638;-78
2024/01/05 03:13:00;;;;;;;2.80;1.80;;;;;;;-1.29;91.16;99767.88;106273;1255;97967;-79
2024/01/05 03:15:45;;;;;;;2.10;1.60;;;;;;;-1.28;90.88;99768.16;105628;1260;101329;-79
2024/01/05 03:18:31;;;;;;;5.10;2.10;;;;;;;-1.29;90.52;99764.69;105528;1257;99181;-79
2024/01/05 03:21:16;;;;;;;2.50;1.60;;;;;;;-1.32;90.02;99765.31;105612;1255;98468;-78
2024/01/05 03:24:02;;;;;;;1.70;1.50;;;;;;;-1.31;90.32;99770.84;105826;1261;97968;-78
2024/01/05 03:26:48;;;;;;;2.40;1.60;;;;;;;-1.29;90.27;99770.30;106300;1256;98832;-79
2024/01/05 03:29:33;;;;;;;2.00;1.60;;;;;;;-1.28;89.95;99771.97;105662;1261;182609;-78
2024/01/05 03:32:19;;;;;;;1.60;1.50;;;;;;;-1.29;89.68;99774.33;105681;1260;99838;-78
2024/01/05 03:35:05;;;;;;;2.20;1.20;;;;;;;-1.34;89.34;99772.16;106169;1260;98591;-80
2024/01/05 03:37:50;;;;;;;3.70;1.60;;;;;;;-1.34;89.70;99773.52;106357;1255;97869;-79
2024/01/05 03:40:36;;;;;;;2.00;1.60;;;;;;;-1.32;89.50;99780.39;106264;1258;98660;-79
2024/01/05 03:43:22;;;;;;;1.90;1.30;;;;;;;-1.30;89.61;99788.08;105962;1260;103153;-79
2024/01/05 03:46:11;;;;;;;3.30;1.30;;;;;;;-1.27;89.57;99788.86;106281;1261;100091;-79
2024/01/05 03:48:57;;;;;;;1.20;1.00;;;;;;;-1.24;89.45;99790.02;105851;1261;98884;-78
2024/01/05 03:51:43;;;;;;;2.40;1.40;;;;;;;-1.22;89.46;99797.38;105674;1260;97898;-78
2024/01/05 03:54:28;;;;;;;2.50;1.20;;;;;;;-1.17;89.67;99799.77;105797;1260;98407;-79
2024/01/05 03:57:14;;;;;;;1.70;1.00;;;;;;;-1.14;89.60;99801.40;105673;1256;101197;-78
2024/01/05 04:00:00;;;;;;;2.30;1.20;;;;;;;-1.12;89.29;99801.90;105689;1258;99128;-78
2024/01/05 04:02:45;;;;;;;6.50;2.50;;;;;;;-1.10;89.38;99805.27;105720;1255;97959;-79
2024/01/05 04:05:32;;;;;;;3.70;1.60;;;;;;;-1.09;89.37;99807.77;105695;1257;97956;-77
2024/01/05 04:08:17;;;;;;;2.00;1.40;;;;;;;-1.07;89.50;99811.86;105697;1261;97967;-79
2024/01/05 04:11:03;;;;;;;2.60;1.40;;;;;;;-1.04;89.97;99816.33;106196;1258;102078;-79
2024/01/05 04:13:48;;;;;;;4.20;2.10;;;;;;;-1.02;90.05;99820.50;106283;1257;99255;-79
2024/01/05 04:16:34;;;;;;;2.00;1.70;;;;;;;-1.02;89.68;99818.36;106154;1260;98709;-81
2024/01/05 04:19:20;;;;;;;3.50;2.00;;;;;;;-1.03;89.44;99817.82;106095;1261;97894;-80
2024/01/05 04:22:06;;;;;;;4.60;1.60;;;;;;;-1.05;89.19;99823.75;106262;1258;98433;-79
2024/01/05 04:24:52;;;;;;;3.80;2.00;;;;;;;-1.08;88.96;99829.44;106331;1260;101351;-78
2024/01/05 04:27:38;;;;;;;6.00;3.70;;;;;;;-1.06;89.51;99825.58;106234;1255;99177;-78
2024/01/05 04:30:24;;;;;;;3.00;2.20;;;;;;;-1.04;89.41;99825.00;106195;1257;98037;-79
2024/01/05 04:33:11;;;;;;;2.90;1.90;;;;;;;-1.03;89.43;99823.00;106073;1262;98040;-79
2024/01/05 04:35:56;;;;;;;2.80;2.10;;;;;;;-0.98;89.88;99821.71;105752;1255;98415;-78
2024/01/05 04:38:42;;;;;;;3.40;2.20;;;;;;;-0.99;89.36;99823.87;105821;1260;102046;-78
2024/01/05 04:41:27;;;;;;;3.90;2.20;;;;;;;-0.99;89.27;99827.77;105863;1259;99326;-78
2024/01/05 04:44:13;;;;;;;2.60;2.10;;;;;;;-1.00;89.43;99834.84;105994;1259;97953;-77
2024/01/05 04:46:59;;;;;;;4.40;2.10;;;;;;;-1.00;89.42;99834.65;106031;1258;97898;-79
2024/01/05 04:49:44;;;;;;;3.90;2.50;;;;;;;-0.98;89.73;99836.79;106291;1260;98408;-77
2024/01/05 04:52:30;;;;;;;5.10;2.70;;;;;;;-0.96;89.73;99837.15;105903;1255;103198;-79
2024/01/05 04:55:15;;;;;;;4.40;2.90;;;;;;;-0.96;89.66;99843.63;106254;1259;100406;-80
2024/01/05 04:58:01;;;;;;;3.90;2.80;;;;;;;-0.93;90.04;99843.38;106575;1259;97991;-80
2024/01/05 05:00:46;;;;;;;3.20;2.30;;;;;;;-0.92;90.02;99844.10;106202;1255;98615;-82
2024/01/05 05:03:32;;;;;;;3.50;2.40;;;;;;;-0.91;89.90;99847.91;106368;1261;98473;-79
2024/01/05 05:06:17;;;;;;;5.00;3.50;;;;;;;-0.92;89.99;99853.56;106780;1255;101370;-81
2024/01/05 05:09:03;;;;;;;5.10;2.80;;;;;;;-0.94;90.07;99858.64;106558;1261;99091;-81
2024/01/05 05:11:48;;;;;;;7.60;2.40;;;;;;;-0.93;90.32;99864.55;105834;1272;97972;-79
2024/01/05 05:14:34;;;;;;;6.10;2.60;;;;;;;-0.93;90.20;99868.64;106052;1256;98513;-79
2024/01/05 05:17:19;;;;;;;5.00;2.90;;;;;;;-0.93;90.30;99876.16;106218;1261;99239;-79
2024/01/05 05:20:05;;;;;;;4.90;3.00;;;;;;;-0.94;90.36;99878.15;106092;1258;101351;-80
2024/01/05 05:22:50;;;;;;;4.10;2.60;;;;;;;-0.95;90.26;99879.80;106233;1255;100344;-79
2024/01/05 05:25:36;;;;;;;3.20;2.80;;;;;;;-0.94;90.65;99878.98;106305;1261;99225;-78
2024/01/05 05:28:22;;;;;;;4.60;2.80;;;;;;;-0.94;90.23;99879.54;106285;1258;97849;-79
2024/01/05 05:31:08;;;;;;;5.30;2.60;;;;;;;-0.93;90.36;99881.40;106332;1260;97748;-79
2024/01/05 05:33:54;;;;;;;4.10;2.60;;;;;;;-0.91;90.39;99884.53;106491;1258;101864;-79
2024/01/05 05:36:39;;;;;;;4.00;2.20;;;;;;;-0.88;90.36;99885.30;105734;1261;99699;-78
2024/01/05 05:39:25;;;;;;;3.20;2.40;;;;;;;-0.87;90.27;99886.46;105768;1257;97956;-79
2024/01/05 05:42:11;;;;;;;5.00;2.60;;;;;;;-0.85;90.39;99887.35;105636;1261;98065;-79
2024/01/05 05:44:56;;;;;;;7.00;2.90;;;;;;;-0.85;90.52;99890.29;106369;1256;98467;-79
2024/01/05 05:47:42;;;;;;;4.20;2.30;;;;;;;-0.82;90.71;99893.86;106294;1258;101987;-80
2024/01/05 05:50:28;;;;;;;4.30;2.30;;;;;;;-0.78;90.62;99898.17;106366;1259;99217;-80
2024/01/05 05:53:13;;;;;;;6.00;2.70;;;;;;;-0.77;90.43;99903.52;106434;1259;97953;-79
2024/01/05 05:55:59;;;;;;;4.50;2.50;;;;;;;-0.76;90.46;99908.33;106193;1261;97971;-80
2024/01/05 05:58:45;;;;;;;5.60;2.80;;;;;;;-0.78;89.85;99916.71;106687;1259;96752;-80
2024/01/05 06:01:30;;;;;;;4.00;2.40;;;;;;;-0.84;89.64;99914.22;106702;1261;101439;-80
2024/01/05 06:04:16;;;;;;;3.90;2.30;;;;;;;-0.86;89.67;99917.23;106355;1258;100641;-80
2024/01/05 06:07:02;;;;;;;4.40;2.20;;;;;;;-0.87;89.57;99916.31;105938;1257;97879;-78
2024/01/05 06:09:47;;;;;;;4.40;2.00;;;;;;;-0.89;88.84;99913.85;105845;1259;98077;-78
2024/01/05 06:12:33;;;;;;;2.40;1.50;;;;;;;-0.90;88.44;99922.10;106055;1258;97856;-79
2024/01/05 06:15:19;;;;;;;4.40;2.00;;;;;;;-0.89;88.23;99926.95;106320;1259;102164;-79
2024/01/05 06:18:05;;;;;;;2.20;2.00;;;;;;;-0.88;88.17;99932.77;106251;1261;99870;-80
2024/01/05 06:20:50;;;;;;;3.00;2.40;;;;;;;-0.86;87.94;99937.73;105760;1256;98965;-78
2024/01/05 06:23:36;;;;;;;2.70;1.80;;;;;;;-0.86;87.62;99932.98;105814;1260;98637;-79
2024/01/05 06:26:21;;;;;;;3.40;1.90;;;;;;;-0.84;87.64;99937.86;105854;1261;98064;-79
2024/01/05 06:29:08;;;;;;;3.00;1.80;;;;;;;-0.82;87.16;99934.03;106200;1258;102112;-79
2024/01/05 06:31:53;;;;;;;3.70;2.00;;;;;;;-0.82;86.88;99934.74;105739;1260;99157;-79
2024/01/05 06:34:39;;;;;;;3.30;1.80;;;;;;;-0.81;86.92;99946.02;105857;1261;98007;-80
2024/01/05 06:37:24;;;;;;;3.30;1.80;;;;;;;-0.81;86.46;99944.61;106249;1261;99194;-80
2024/01/05 06:40:10;;;;;;;3.30;1.90;;;;;;;-0.81;86.24;99948.31;106876;1257;98507;-80
2024/01/05 06:42:57;;;;;;;5.60;2.50;;;;;;;-0.79;86.42;99954.30;106607;1256;101332;-80
2024/01/05 06:45:43;;;;;;;4.20;2.80;;;;;;;-0.77;86.07;99956.10;105952;1259;100504;-79
2024/01/05 06:48:29;;;;;;;2.90;2.20;;;;;;;-0.76;86.17;99961.13;105921;1258;97876;-79
2024/01/05 06:51:15;;;;;;;5.70;3.20;;;;;;;-0.75;86.51;99964.67;106626;1256;97858;-79
2024/01/05 06:54:00;;;;;;;5.20;2.90;;;;;;;-0.71;86.74;99972.20;106572;1261;97885;-80
2024/01/05 06:56:46;;;;;;;3.20;2.40;;;;;;;-0.69;86.39;99975.91;106711;1258;101470;-81
2024/01/05 06:59:35;;;;;;;6.10;3.00;;;;;;;-0.71;85.99;99978.31;106199;1260;100404;-79
2024/01/05 07:02:21;;;;;;;5.20;2.80;;;;;;;-0.73;85.99;99979.38;106529;1260;99420;-79
2024/01/05 07:05:07;;;;;;;3.70;2.50;;;;;;;-0.74;86.11;99982.47;106365;1261;98488;-79
2024/01/05 07:07:53;;;;;;;4.70;2.80;;;;;;;-0.76;85.90;99983.16;106367;1257;98036;-79
2024/01/05 07:10:38;;;;;;;6.90;3.90;;;;;;;-0.77;85.87;99985.11;106364;1258;102108;-80
2024/01/05 07:13:24;;;;;;;9.50;4.80;;;;;;;-0.75;86.07;99991.84;106064;1261;100420;-79
2024/01/05 07:16:20;;;;;;;6.80;3.40;;;;;;;-0.76;86.22;99994.53;106471;1258;97921;-80
2024/01/05 07:19:06;;;;;;;8.30;5.00;;;;;;;-0.77;86.28;99999.03;106415;1259;98055;-79
2024/01/05 07:21:53;;;;;;;10.00;5.60;;;;;;;-0.78;86.47;99996.84;106065;1257;97905;-79
2024/01/05 07:24:38;;;;;;;5.30;3.20;;;;;;;-0.79;86.45;99996.20;106433;1259;101843;-78
2024/01/05 07:27:24;;;;;;;3.60;2.20;;;;;;;-0.80;86.75;99993.48;106208;1258;99165;-80
2024/01/05 07:30:10;;;;;;;3.30;2.10;;;;;;;-0.79;86.81;99993.23;106226;1259;97982;-80
2024/01/05 07:32:56;;;;;;;4.90;3.60;;;;;;;-0.79;86.77;99999.55;107493;1258;97991;-80
2024/01/05 07:35:42;;;;;;;4.20;2.90;;;;;;;-0.80;86.63;99999.39;106250;1261;98487;-80
2024/01/05 07:38:27;;;;;;;5.00;2.70;;;;;;;-0.81;86.52;99995.88;106230;1259;102796;-78
2024/01/05 07:41:16;;;;;;;3.60;1.90;;;;;;;-0.84;86.62;99994.31;106257;1260;99079;-78
2024/01/05 07:44:02;;;;;;;4.90;2.40;;;;;;;-0.85;86.44;99991.60;105663;1260;97965;-79
2024/01/05 07:46:47;;;;;;;3.90;1.80;;;;;;;-0.89;86.23;99989.11;105826;1258;97962;-79
2024/01/05 07:49:34;;;;;;;3.50;2.20;;;;;;;-0.90;86.54;99993.29;105630;1259;98648;-79
2024/01/05 07:52:19;;;;;;;3.70;2.30;;;;;;;-0.89;86.54;99999.14;105908;1261;102405;-79
2024/01/05 07:55:07;;;;;;;3.40;2.60;;;;;;;-0.91;86.10;100001.60;105777;1261;99886;-79
2024/01/05 07:57:52;;;;;;;2.70;1.60;;;;;;;-0.94;85.77;100006.23;105584;1261;98642;-78
2024/01/05 08:00:38;;;;;;;5.00;3.20;;;;;;;-0.95;85.69;100007.71;106253;1258;97877;-79
2024/01/05 08:03:23;;;;;;;2.50;1.90;;;;;;;-0.95;85.57;100012.27;106279;1261;97973;-79
2024/01/05 08:06:20;;;;;;;2.70;1.30;;;;;;;-0.93;85.17;100013.02;106241;1261;102633;-79
2024/01/05 08:09:06;;;;;;;3.60;2.10;;;;;;;-0.94;84.75;100016.89;106451;1260;99247;-79
2024/01/05 08:11:52;;;;;;;3.20;1.60;;;;;;;-0.91;84.78;100021.95;106127;1258;99009;-77
2024/01/05 08:14:38;;;;;;;1.90;1.30;;;;;;;-0.89;84.32;100022.46;105607;1261;97867;-78
2024/01/05 08:17:24;;;;;;;2.00;1.30;;;;;;;-0.92;83.38;100022.52;105560;1258;97957;-77
2024/01/05 08:20:10;;;;;;;2.10;1.90;;;;;;;-0.93;83.59;100022.79;105824;1261;102043;-79
2024/01/05 08:22:56;;;;;;;2.00;1.40;;;;;;;-0.94;83.34;100018.83;106071;1269;99104;-79
2024/01/05 08:25:42;;;;;;;1.30;1.20;;;;;;;-0.94;83.10;100013.81;105615;1258;98674;-78
2024/01/05 08:28:27;;;;;;;2.40;1.20;;;;;;;-0.96;82.60;100018.20;105704;1261;98067;-78
2024/01/05 08:31:13;;;;;;;1.40;1.10;;;;;;;-0.99;82.45;100019.83;105686;1261;98567;-79
2024/01/05 08:33:58;;;;;;;1.60;1.10;;;;;;;-1.02;82.40;100020.59;105897;1261;101343;-78
2024/01/05 08:36:44;;;;;;;1.30;1.10;;;;;;;-1.03;82.31;100020.15;106089;1261;99175;-79
2024/01/05 08:39:30;;;;;;;2.60;1.30;;;;;;;-1.02;82.68;100024.44;105962;1261;97885;-78
2024/01/05 08:42:16;;;;;;;1.50;1.20;;;;;;;-0.99;82.80;100031.77;106115;1258;97953;-79
2024/01/05 08:45:01;;;;;;;2.90;1.30;;;;;;;-1.00;82.24;100034.30;106188;1257;98392;-80
2024/01/05 08:47:47;;;;;;;1.40;1.30;;;;;;;-1.04;81.96;100042.45;105804;1262;101497;-79
2024/01/05 08:50:34;;;;;;;1.30;1.10;;;;;;;-1.04;82.36;100050.88;106000;1257;111572;-79
2024/01/05 08:53:21;;;;;;;1.90;1.20;;;;;;;-1.02;82.31;100051.09;105952;1271;99060;-79
2024/01/05 08:56:08;;;;;;;2.00;1.30;;;;;;;-0.99;82.82;100060.48;105595;1263;98260;-78
2024/01/05 08:58:53;;;;;;;2.30;1.20;;;;;;;-0.94;82.91;100060.88;105959;1261;97796;-78
2024/01/05 09:01:39;;;;;;;1.60;1.20;;;;;;;-0.89;82.37;100062.22;105948;1261;101588;-78
2024/01/05 09:04:24;;;;;;;1.60;1.40;;;;;;;-0.87;81.83;100057.70;105926;1256;99115;-78
2024/01/05 09:07:11;;;;;;;1.80;1.20;;;;;;;-0.87;81.90;100058.21;105626;1260;98768;-78
2024/01/05 09:09:57;;;;;;;2.70;1.60;;;;;;;-0.86;81.74;100056.92;105673;1257;97876;-78
2024/01/05 09:12:43;;;;;;;1.30;0.90;;;;;;;-0.86;81.81;100055.98;105615;1261;97899;-78
2024/01/05 09:15:28;;;;;;;2.50;1.60;;;;;;;-0.82;82.13;100056.02;105574;1256;101412;-77
2024/01/05 09:18:14;;;;;;;2.00;1.40;;;;;;;-0.80;81.67;100053.77;105660;1261;100154;-78
2024/01/05 09:21:00;;;;;;;1.70;1.20;;;;;;;-0.78;81.82;100054.30;105620;1273;99145;-77
2024/01/05 09:23:46;;;;;;;1.60;1.40;;;;;;;-0.74;81.57;100063.10;105683;1258;97966;-78
2024/01/05 09:26:31;;;;;;;3.00;2.20;;;;;;;-0.67;81.86;100067.27;105662;1261;98475;-78
2024/01/05 09:29:17;;;;;;;2.30;1.60;;;;;;;-0.59;81.99;100073.24;105536;1261;101435;-78
2024/01/05 09:32:03;;;;;;;2.40;1.60;;;;;;;-0.54;81.73;100073.11;105721;1261;100332;-78
2024/01/05 09:34:48;;;;;;;1.80;1.30;;;;;;;-0.47;81.41;100068.20;105446;1264;98993;-78
2024/01/05 09:37:33;;;;;;;3.50;1.30;;;;;;;-0.42;80.90;100072.66;105614;1261;98025;-77
2024/01/05 09:40:20;;;;;;;1.60;1.10;;;;;;;-0.41;80.01;100071.81;105639;1260;95876;-78
2024/01/05 09:43:07;;;;;;;2.40;1.00;;;;;;;-0.40;79.54;100072.15;105611;1255;101414;-78
2024/01/05 09:45:55;;;;;;;2.50;1.00;;;;;;;-0.41;79.29;100072.38;105682;1262;99070;-78
2024/01/05 09:48:41;;;;;;;1.70;1.60;;;;;;;-0.38;79.41;100074.73;105573;1257;98710;-78
2024/01/05 09:51:30;;;;;;;1.60;0.90;;;;;;;-0.34;78.85;100074.05;105618;1263;97991;-77
2024/01/05 09:54:16;;;;;;;1.10;0.90;;;;;;;-0.32;78.90;100072.10;105528;1263;98474;-78
2024/01/05 09:57:02;;;;;;;1.30;1.10;;;;;;;-0.27;79.17;100068.02;105614;1261;101434;-78
2024/01/05 09:59:48;;;;;;;1.40;1.00;;;;;;;-0.21;79.51;100068.36;105559;1263;99100;-78
2024/01/05 10:02:42;;;;;;;1.60;1.10;;;;;;;-0.16;78.93;100072.66;105547;1260;99009;-78
2024/01/05 10:05:30;;;;;;;1.20;1.10;;;;;;;-0.15;78.12;100084.34;105596;1261;97964;-78
2024/01/05 10:08:15;;;;;;;4.60;2.30;;;;;;;-0.13;77.97;100087.33;105665;1271;98530;-78
2024/01/05 10:11:02;;;;;;;7.10;3.70;;;;;;;-0.12;77.59;100087.25;105513;1257;101448;-78
2024/01/05 10:13:57;;;;;;;2.00;1.30;;;;;;;-0.10;77.44;100087.38;105951;1260;99779;-78
2024/01/05 10:16:43;;;;;;;0.90;0.80;;;;;;;-0.07;77.14;100096.25;105511;1271;99416;-78
2024/01/05 10:19:29;;;;;;;1.00;0.90;;;;;;;-0.06;76.51;100098.31;105503;1258;98092;-78
2024/01/05 10:22:15;;;;;;;3.80;2.60;;;;;;;-0.03;76.97;100095.40;105613;1261;98405;-75
2024/01/05 10:25:16;;;;;;;3.60;2.70;;;;;;;-0.02;76.40;100100.23;106258;1257;101514;-80
2024/01/05 10:28:21;;;;;;;2.20;1.40;;;;;;;-0.02;76.20;100101.95;106177;1255;99995;-83
2024/01/05 10:31:12;;;;;;;2.30;0.90;;;;;;;-0.02;75.62;100108.98;106570;1261;98693;-87
2024/01/05 10:33:57;;;;;;;;;;;;;;;-0.00;75.64;100108.30;105745;1262;97930;-81
2024/01/05 10:36:43;;;;;;;2.90;1.50;;;;;;;-0.00;75.87;100104.30;106928;1257;98448;-80
2024/01/05 10:39:28;;;;;;;78.70;31.50;;;;;;;0.04;76.32;100105.56;106456;1257;102620;-80
2024/01/05 10:42:19;;;;;;;27.30;14.00;;;;;;;0.07;75.96;100103.13;105875;1260;100050;-79
2024/01/05 10:45:05;;;;;;;11.50;7.00;;;;;;;0.11;76.35;100101.19;106478;1263;97845;-84
2024/01/05 10:47:52;;;;;;;6.70;4.20;;;;;;;0.17;76.48;100100.34;106367;1258;97899;-83
2024/01/05 10:50:40;;;;;;;7.00;4.60;;;;;;;0.21;76.84;100097.86;106756;1257;98484;-81
2024/01/05 10:53:26;;;;;;;7.50;5.00;;;;;;;0.25;76.56;100101.70;106739;1257;101429;-80
2024/01/05 10:56:14;;;;;;;5.70;4.10;;;;;;;0.28;75.71;100105.38;106264;1260;99159;-80
2024/01/05 10:58:59;;;;;;;7.80;3.80;;;;;;;0.30;76.12;100103.36;106684;1260;98448;-80
2024/01/05 11:01:47;;;;;;;10.40;5.40;;;;;;;0.33;76.03;100097.30;106541;1260;97730;-79
2024/01/05 11:04:34;;;;;;;17.40;7.40;;;;;;;0.34;74.66;100088.45;105831;1261;97941;-86
2024/01/05 11:07:23;;;;;;;9.60;4.60;;;;;;;0.35;74.70;100088.90;106499;1262;102189;-80
2024/01/05 11:10:30;;;;;;;5.20;2.90;;;;;;;0.36;74.09;100090.43;106616;1262;100366;-76
2024/01/05 11:13:36;;;;;;;8.20;4.00;;;;;;;0.37;74.27;100088.40;105957;1264;99022;-84
2024/01/05 11:16:28;;;;;;;7.20;3.30;;;;;;;0.39;74.28;100097.13;106731;1261;99686;-81
2024/01/05 11:19:35;;;;;;;4.20;2.30;;;;;;;0.42;74.80;100102.80;107028;1260;97862;-80
2024/01/05 11:22:28;;;;;;;3.60;2.00;;;;;;;0.44;75.03;100104.77;106940;1257;102635;-81
2024/01/05 11:25:15;;;;;;;4.00;2.00;;;;;;;0.46;74.72;100110.43;106811;1257;99804;-80
2024/01/05 11:28:02;;;;;;;2.50;1.80;;;;;;;0.47;74.34;100112.45;106852;1257;99034;-81
2024/01/05 11:30:48;;;;;;;6.00;2.20;;;;;;;0.46;74.35;100112.34;106852;1257;97897;-81
2024/01/05 11:33:44;;;;;;;6.80;2.90;;;;;;;0.46;74.73;100111.42;106954;1260;98850;-81
2024/01/05 11:36:49;;;;;;;2.60;2.10;;;;;;;0.45;74.26;100107.31;106864;1258;101420;-81
2024/01/05 11:39:41;;;;;;;4.30;2.40;;;;;;;0.44;74.62;100104.38;106809;1257;99086;-81
2024/01/05 11:42:28;;;;;;;4.40;2.10;;;;;;;0.46;74.83;100105.30;106796;1256;98134;-81
2024/01/05 11:45:46;;;;;;;3.70;1.80;;;;;;;0.46;74.72;100101.77;106629;1257;97861;-79
2024/01/05 11:48:35;;;;;;;4.30;2.40;;;;;;;0.48;75.10;100104.05;106662;1261;98044;-80
2024/01/05 11:51:21;;;;;;;3.60;2.50;;;;;;;0.49;74.83;100106.08;106672;1258;102595;-79
2024/01/05 11:54:09;;;;;;;4.50;2.00;;;;;;;0.49;74.54;100107.19;106509;1258;99798;-80
2024/01/05 11:56:58;;;;;;;7.10;3.30;;;;;;;0.50;74.74;100105.66;106656;1260;97807;-80
2024/01/05 11:59:44;;;;;;;5.10;2.10;;;;;;;0.52;75.00;100102.48;106638;1261;97826;-80
2024/01/05 12:02:30;;;;;;;5.60;2.80;;;;;;;0.54;74.88;100104.45;106566;1263;98440;-80
2024/01/05 12:05:16;;;;;;;8.80;4.20;;;;;;;0.57;75.19;100112.07;106850;1260;101332;-82
2024/01/05 12:08:02;;;;;;;6.80;3.00;;;;;;;0.59;75.32;100110.59;106788;1257;100338;-80
2024/01/05 12:11:05;;;;;;;4.10;2.10;;;;;;;0.61;75.16;100114.65;106538;1257;97931;-80
2024/01/05 12:13:52;;;;;;;5.20;2.60;;;;;;;0.63;75.30;100100.77;106683;1257;97954;-80
2024/01/05 12:16:37;;;;;;;2.80;2.40;;;;;;;0.65;75.15;100100.44;106501;1257;97864;-80
2024/01/05 12:19:23;;;;;;;4.90;2.40;;;;;;;0.66;74.88;100102.65;106653;1260;101423;-80
2024/01/05 12:22:09;;;;;;;6.00;2.00;;;;;;;0.64;75.02;100104.70;106417;1260;99196;-80
2024/01/05 12:24:55;;;;;;;3.00;2.00;;;;;;;0.63;74.88;100106.95;105953;1260;98751;-79
2024/01/05 12:27:40;;;;;;;4.50;2.20;;;;;;;0.63;75.29;100101.33;106421;1257;97895;-80
2024/01/05 12:30:26;;;;;;;4.20;2.70;;;;;;;0.63;74.95;100103.12;106666;1260;98057;-79
2024/01/05 12:33:12;;;;;;;5.60;3.00;;;;;;;0.59;74.96;100103.05;106540;1260;101434;-79
2024/01/05 12:35:59;;;;;;;5.70;2.80;;;;;;;0.58;75.52;100108.07;106600;1257;100360;-80
2024/01/05 12:38:44;;;;;;;5.70;3.10;;;;;;;0.59;75.70;100107.80;106526;1262;98952;-81
2024/01/05 12:41:30;;;;;;;5.30;2.90;;;;;;;0.63;76.79;100105.19;106809;1257;97763;-81
2024/01/05 12:44:15;;;;;;;6.90;2.70;;;;;;;0.65;76.15;100103.36;106490;1260;97998;-79
2024/01/05 12:47:01;;;;;;;6.30;3.20;;;;;;;0.66;75.99;100102.26;106719;1258;101458;-80
2024/01/05 12:49:47;;;;;;;4.70;2.80;;;;;;;0.66;75.94;100095.23;106208;1257;99192;-80